sensor_id;sensor_type;location;lat;lon;timestamp;pressure;altitude;pressure_sealevel;temperature;humidity
83100;BME280;72972;51.784;4.660;2024-02-23T00:00:28;98924.44;;;5.88;91.70
83100;BME280;72972;51.784;4.660;2024-02-23T00:02:54;98938.25;;;5.86;92.21
83100;BME280;72972;51.784;4.660;2024-02-23T00:05:21;98934.03;;;5.90;90.74
83100;BME280;72972;51.784;4.660;2024-02-23T00:07:47;98940.56;;;5.89;91.68
83100;BME280;72972;51.784;4.660;2024-02-23T00:10:13;98958.09;;;5.93;91.02
83100;BME280;72972;51.784;4.660;2024-02-23T00:12:39;98948.69;;;5.96;91.23
83100;BME280;72972;51.784;4.660;2024-02-23T00:15:04;98949.72;;;6.01;90.10
83100;BME280;72972;51.784;4.660;2024-02-23T00:17:30;98942.84;;;5.99;90.83
83100;BME280;72972;51.784;4.660;2024-02-23T00:19:56;98961.03;;;5.92;92.32
83100;BME280;72972;51.784;4.660;2024-02-23T00:22:22;98970.69;;;5.88;93.00
83100;BME280;72972;51.784;4.660;2024-02-23T00:24:48;98964.63;;;5.86;93.12
83100;BME280;72972;51.784;4.660;2024-02-23T00:27:13;98968.19;;;5.86;92.48
83100;BME280;72972;51.784;4.660;2024-02-23T00:29:39;98977.78;;;5.82;91.58
83100;BME280;72972;51.784;4.660;2024-02-23T00:32:06;98979.28;;;5.85;91.83
83100;BME280;72972;51.784;4.660;2024-02-23T00:34:32;98987.66;;;5.83;92.19
83100;BME280;72972;51.784;4.660;2024-02-23T00:36:57;98976.31;;;5.80;92.80
83100;BME280;72972;51.784;4.660;2024-02-23T00:39:23;98986.59;;;5.84;92.63
83100;BME280;72972;51.784;4.660;2024-02-23T00:41:49;99003.53;;;5.86;92.72
83100;BME280;72972;51.784;4.660;2024-02-23T00:44:15;98990.97;;;5.85;91.91
83100;BME280;72972;51.784;4.660;2024-02-23T00:46:40;98997.69;;;5.83;92.32
83100;BME280;72972;51.784;4.660;2024-02-23T00:49:06;98998.28;;;5.78;92.56
83100;BME280;72972;51.784;4.660;2024-02-23T00:51:32;99002.66;;;5.79;92.34
83100;BME280;72972;51.784;4.660;2024-02-23T00:53:57;99001.44;;;5.75;92.62
83100;BME280;72972;51.784;4.660;2024-02-23T00:56:23;99001.03;;;5.65;93.34
83100;BME280;72972;51.784;4.660;2024-02-23T00:58:50;99018.78;;;5.61;94.06
83100;BME280;72972;51.784;4.660;2024-02-23T01:03:19;99015.03;;;5.56;94.22
83100;BME280;72972;51.784;4.660;2024-02-23T01:05:45;99024.63;;;5.52;94.50
83100;BME280;72972;51.784;4.660;2024-02-23T01:08:11;99015.88;;;5.50;94.10
83100;BME280;72972;51.784;4.660;2024-02-23T01:10:36;99022.34;;;5.48;93.73
83100;BME280;72972;51.784;4.660;2024-02-23T01:13:02;99021.09;;;5.44;93.39
83100;BME280;72972;51.784;4.660;2024-02-23T01:15:28;99008.75;;;5.35;93.46
83100;BME280;72972;51.784;4.660;2024-02-23T01:17:53;99024.44;;;5.40;93.46
83100;BME280;72972;51.784;4.660;2024-02-23T01:20:19;99033.00;;;5.37;92.86
83100;BME280;72972;51.784;4.660;2024-02-23T01:22:45;99044.31;;;5.34;92.93
83100;BME280;72972;51.784;4.660;2024-02-23T01:25:11;99038.03;;;5.33;91.91
83100;BME280;72972;51.784;4.660;2024-02-23T01:27:37;99040.34;;;5.30;91.68
83100;BME280;72972;51.784;4.660;2024-02-23T01:30:03;99041.56;;;5.27;92.56
83100;BME280;72972;51.784;4.660;2024-02-23T01:32:29;99044.09;;;5.22;91.96
83100;BME280;72972;51.784;4.660;2024-02-23T01:34:54;99036.56;;;5.18;92.46
83100;BME280;72972;51.784;4.660;2024-02-23T01:37:20;99049.09;;;5.19;92.35
83100;BME280;72972;51.784;4.660;2024-02-23T01:39:46;99054.72;;;5.11;92.15
83100;BME280;72972;51.784;4.660;2024-02-23T01:42:12;99058.72;;;5.15;92.82
83100;BME280;72972;51.784;4.660;2024-02-23T01:44:37;99065.59;;;5.17;92.25
83100;BME280;72972;51.784;4.660;2024-02-23T01:47:03;99066.22;;;5.13;91.50
83100;BME280;72972;51.784;4.660;2024-02-23T01:49:29;99065.38;;;5.12;91.25
83100;BME280;72972;51.784;4.660;2024-02-23T01:52:00;99073.53;;;5.12;92.40
83100;BME280;72972;51.784;4.660;2024-02-23T01:54:27;99068.94;;;5.13;91.48
83100;BME280;72972;51.784;4.660;2024-02-23T01:56:56;99069.97;;;5.12;91.14
83100;BME280;72972;51.784;4.660;2024-02-23T01:59:23;99066.22;;;5.13;91.16
83100;BME280;72972;51.784;4.660;2024-02-23T02:01:50;99071.88;;;5.11;90.85
83100;BME280;72972;51.784;4.660;2024-02-23T02:04:16;99072.47;;;5.07;91.31
83100;BME280;72972;51.784;4.660;2024-02-23T02:06:42;99064.13;;;5.08;91.22
83100;BME280;72972;51.784;4.660;2024-02-23T02:09:08;99070.78;;;5.06;91.31
83100;BME280;72972;51.784;4.660;2024-02-23T02:11:34;99076.22;;;5.06;91.77
83100;BME280;72972;51.784;4.660;2024-02-23T02:13:59;99078.53;;;5.09;89.96
83100;BME280;72972;51.784;4.660;2024-02-23T02:16:25;99090.03;;;5.11;90.84
83100;BME280;72972;51.784;4.660;2024-02-23T02:18:51;99067.06;;;5.13;91.06
83100;BME280;72972;51.784;4.660;2024-02-23T02:21:17;99073.31;;;5.14;90.37
83100;BME280;72972;51.784;4.660;2024-02-23T02:23:43;99071.22;;;5.09;89.97
83100;BME280;72972;51.784;4.660;2024-02-23T02:26:08;99083.34;;;5.07;90.77
83100;BME280;72972;51.784;4.660;2024-02-23T02:28:34;99059.50;;;5.02;90.48
83100;BME280;72972;51.784;4.660;2024-02-23T02:31:00;99060.75;;;5.00;89.79
83100;BME280;72972;51.784;4.660;2024-02-23T02:33:25;99073.50;;;4.99;90.76
83100;BME280;72972;51.784;4.660;2024-02-23T02:35:51;99069.31;;;4.97;90.11
83100;BME280;72972;51.784;4.660;2024-02-23T02:38:17;99081.84;;;4.91;90.75
83100;BME280;72972;51.784;4.660;2024-02-23T02:40:43;99071.16;;;4.90;90.68
83100;BME280;72972;51.784;4.660;2024-02-23T02:43:08;99076.16;;;4.86;91.23
83100;BME280;72972;51.784;4.660;2024-02-23T02:45:34;99077.84;;;4.87;91.65
83100;BME280;72972;51.784;4.660;2024-02-23T02:48:00;99078.47;;;4.83;91.50
83100;BME280;72972;51.784;4.660;2024-02-23T02:50:29;99077.41;;;4.84;92.25
83100;BME280;72972;51.784;4.660;2024-02-23T02:52:54;99073.22;;;4.75;92.75
83100;BME280;72972;51.784;4.660;2024-02-23T02:55:20;99075.94;;;4.75;92.01
83100;BME280;72972;51.784;4.660;2024-02-23T02:57:46;99089.91;;;4.72;92.87
83100;BME280;72972;51.784;4.660;2024-02-23T03:00:23;99072.72;;;4.65;92.91
83100;BME280;72972;51.784;4.660;2024-02-23T03:02:49;99086.53;;;4.70;92.55
83100;BME280;72972;51.784;4.660;2024-02-23T03:05:14;99078.41;;;4.70;93.05
83100;BME280;72972;51.784;4.660;2024-02-23T03:07:40;99088.00;;;4.66;93.43
83100;BME280;72972;51.784;4.660;2024-02-23T03:10:06;99084.25;;;4.67;93.54
83100;BME280;72972;51.784;4.660;2024-02-23T03:12:32;99083.19;;;4.61;93.21
83100;BME280;72972;51.784;4.660;2024-02-23T03:14:58;99093.44;;;4.66;93.04
83100;BME280;72972;51.784;4.660;2024-02-23T03:17:24;99100.09;;;4.63;93.12
83100;BME280;72972;51.784;4.660;2024-02-23T03:19:49;99088.41;;;4.63;93.49
83100;BME280;72972;51.784;4.660;2024-02-23T03:22:18;99093.00;;;4.62;92.55
83100;BME280;72972;51.784;4.660;2024-02-23T03:24:43;99114.09;;;4.67;93.39
83100;BME280;72972;51.784;4.660;2024-02-23T03:27:09;99105.09;;;4.66;93.36
83100;BME280;72972;51.784;4.660;2024-02-23T03:29:35;99099.88;;;4.65;93.63
83100;BME280;72972;51.784;4.660;2024-02-23T03:32:01;99083.59;;;4.65;93.27
83100;BME280;72972;51.784;4.660;2024-02-23T03:34:26;99105.31;;;4.65;93.64
83100;BME280;72972;51.784;4.660;2024-02-23T03:36:52;99113.47;;;4.65;93.29
83100;BME280;72972;51.784;4.660;2024-02-23T03:39:18;99092.38;;;4.67;92.96
83100;BME280;72972;51.784;4.660;2024-02-23T03:41:43;99107.63;;;4.68;93.85
83100;BME280;72972;51.784;4.660;2024-02-23T03:44:09;99097.59;;;4.68;93.04
83100;BME280;72972;51.784;4.660;2024-02-23T03:46:35;99098.66;;;4.67;93.18
83100;BME280;72972;51.784;4.660;2024-02-23T03:49:00;99092.19;;;4.68;92.80
83100;BME280;72972;51.784;4.660;2024-02-23T03:51:26;99103.88;;;4.69;93.31
83100;BME280;72972;51.784;4.660;2024-02-23T03:53:52;99108.88;;;4.65;93.91
83100;BME280;72972;51.784;4.660;2024-02-23T03:56:18;99089.22;;;4.63;94.14
83100;BME280;72972;51.784;4.660;2024-02-23T03:58:43;99091.13;;;4.63;93.91
83100;BME280;72972;51.784;4.660;2024-02-23T04:01:09;99098.00;;;4.65;94.20
83100;BME280;72972;51.784;4.660;2024-02-23T04:03:35;99104.28;;;4.66;93.29
83100;BME280;72972;51.784;4.660;2024-02-23T04:06:01;99093.00;;;4.62;93.56
83100;BME280;72972;51.784;4.660;2024-02-23T04:08:26;99109.06;;;4.64;94.09
83100;BME280;72972;51.784;4.660;2024-02-23T04:10:52;99109.31;;;4.69;93.58
83100;BME280;72972;51.784;4.660;2024-02-23T04:13:18;99094.03;;;4.68;93.91
83100;BME280;72972;51.784;4.660;2024-02-23T04:15:44;99111.25;;;4.81;92.54
83100;BME280;72972;51.784;4.660;2024-02-23T04:18:09;99099.78;;;4.86;92.73
83100;BME280;72972;51.784;4.660;2024-02-23T04:20:35;99101.03;;;4.90;93.18
83100;BME280;72972;51.784;4.660;2024-02-23T04:23:01;99110.44;;;4.87;93.35
83100;BME280;72972;51.784;4.660;2024-02-23T04:25:26;99116.28;;;4.91;91.96
83100;BME280;72972;51.784;4.660;2024-02-23T04:27:52;99107.94;;;4.92;92.38
83100;BME280;72972;51.784;4.660;2024-02-23T04:30:18;99109.00;;;4.91;92.79
83100;BME280;72972;51.784;4.660;2024-02-23T04:32:44;99105.84;;;4.88;92.93
83100;BME280;72972;51.784;4.660;2024-02-23T04:35:09;99107.53;;;4.89;92.04
83100;BME280;72972;51.784;4.660;2024-02-23T04:37:35;99120.91;;;4.90;92.48
83100;BME280;72972;51.784;4.660;2024-02-23T04:40:01;99123.41;;;4.92;92.14
83100;BME280;72972;51.784;4.660;2024-02-23T04:42:27;99117.19;;;4.98;92.50
83100;BME280;72972;51.784;4.660;2024-02-23T04:44:53;99122.81;;;5.03;92.52
83100;BME280;72972;51.784;4.660;2024-02-23T04:47:20;99130.56;;;5.06;92.50
83100;BME280;72972;51.784;4.660;2024-02-23T04:49:46;99128.91;;;5.11;91.71
83100;BME280;72972;51.784;4.660;2024-02-23T04:52:12;99115.13;;;5.13;91.76
83100;BME280;72972;51.784;4.660;2024-02-23T04:54:38;99114.72;;;5.16;90.52
83100;BME280;72972;51.784;4.660;2024-02-23T04:57:03;99112.00;;;5.16;90.87
83100;BME280;72972;51.784;4.660;2024-02-23T04:59:29;99112.22;;;5.21;90.18
83100;BME280;72972;51.784;4.660;2024-02-23T05:01:57;99112.22;;;5.21;90.64
83100;BME280;72972;51.784;4.660;2024-02-23T05:04:23;99118.28;;;5.23;90.36
83100;BME280;72972;51.784;4.660;2024-02-23T05:06:49;99121.00;;;5.23;90.90
83100;BME280;72972;51.784;4.660;2024-02-23T05:09:15;99119.78;;;5.25;91.07
83100;BME280;72972;51.784;4.660;2024-02-23T05:11:40;99112.63;;;5.24;90.55
83100;BME280;72972;51.784;4.660;2024-02-23T05:14:06;99112.84;;;5.23;90.35
83100;BME280;72972;51.784;4.660;2024-02-23T05:16:31;99108.88;;;5.19;90.39
83100;BME280;72972;51.784;4.660;2024-02-23T05:18:57;99106.97;;;5.13;91.16
83100;BME280;72972;51.784;4.660;2024-02-23T05:21:23;99104.88;;;5.08;90.37
83100;BME280;72972;51.784;4.660;2024-02-23T05:23:49;99104.44;;;5.05;90.59
83100;BME280;72972;51.784;4.660;2024-02-23T05:26:15;99092.31;;;5.01;90.03
83100;BME280;72972;51.784;4.660;2024-02-23T05:28:40;99085.19;;;5.00;90.46
83100;BME280;72972;51.784;4.660;2024-02-23T05:31:06;99084.97;;;5.01;90.24
83100;BME280;72972;51.784;4.660;2024-02-23T05:33:31;99072.00;;;4.90;90.60
83100;BME280;72972;51.784;4.660;2024-02-23T05:35:57;99069.50;;;4.89;91.19
83100;BME280;72972;51.784;4.660;2024-02-23T05:38:23;99088.72;;;4.94;90.91
83100;BME280;72972;51.784;4.660;2024-02-23T05:40:48;99087.28;;;4.98;90.81
83100;BME280;72972;51.784;4.660;2024-02-23T05:43:14;99083.75;;;5.04;89.55
83100;BME280;72972;51.784;4.660;2024-02-23T05:45:40;99083.34;;;5.07;89.76
83100;BME280;72972;51.784;4.660;2024-02-23T05:48:06;99079.38;;;5.09;89.74
83100;BME280;72972;51.784;4.660;2024-02-23T05:50:32;99088.56;;;5.08;90.32
83100;BME280;72972;51.784;4.660;2024-02-23T05:52:57;99088.38;;;5.10;90.28
83100;BME280;72972;51.784;4.660;2024-02-23T05:55:23;99088.16;;;5.11;89.67
83100;BME280;72972;51.784;4.660;2024-02-23T05:57:49;99092.09;;;5.09;90.29
83100;BME280;72972;51.784;4.660;2024-02-23T06:00:26;99096.72;;;5.08;89.73
83100;BME280;72972;51.784;4.660;2024-02-23T06:02:52;99101.09;;;5.09;89.74
83100;BME280;72972;51.784;4.660;2024-02-23T06:05:17;99096.69;;;5.02;89.53
83100;BME280;72972;51.784;4.660;2024-02-23T06:07:43;99098.16;;;5.04;88.57
83100;BME280;72972;51.784;4.660;2024-02-23T06:10:09;99103.38;;;5.06;89.48
83100;BME280;72972;51.784;4.660;2024-02-23T06:12:35;99100.47;;;5.07;89.20
83100;BME280;72972;51.784;4.660;2024-02-23T06:15:01;99098.38;;;5.09;89.40
83100;BME280;72972;51.784;4.660;2024-02-23T06:17:26;99098.19;;;5.11;88.92
83100;BME280;72972;51.784;4.660;2024-02-23T06:19:52;99107.81;;;5.13;88.50
83100;BME280;72972;51.784;4.660;2024-02-23T06:22:18;99112.00;;;5.16;89.37
83100;BME280;72972;51.784;4.660;2024-02-23T06:24:47;99101.78;;;5.18;89.25
83100;BME280;72972;51.784;4.660;2024-02-23T06:27:12;99102.19;;;5.15;89.14
83100;BME280;72972;51.784;4.660;2024-02-23T06:29:38;99094.66;;;5.17;89.33
83100;BME280;72972;51.784;4.660;2024-02-23T06:32:05;99099.06;;;5.18;88.41
83100;BME280;72972;51.784;4.660;2024-02-23T06:34:31;99102.38;;;5.20;88.46
83100;BME280;72972;51.784;4.660;2024-02-23T06:36:57;99088.81;;;5.20;87.70
83100;BME280;72972;51.784;4.660;2024-02-23T06:39:23;99080.88;;;5.25;87.26
83100;BME280;72972;51.784;4.660;2024-02-23T06:41:49;99097.19;;;5.25;88.00
83100;BME280;72972;51.784;4.660;2024-02-23T06:44:15;99087.78;;;5.21;87.22
83100;BME280;72972;51.784;4.660;2024-02-23T06:46:40;99087.97;;;5.26;87.45
83100;BME280;72972;51.784;4.660;2024-02-23T06:49:07;99090.91;;;5.24;88.26
83100;BME280;72972;51.784;4.660;2024-02-23T06:51:33;99097.19;;;5.25;86.01
83100;BME280;72972;51.784;4.660;2024-02-23T06:53:59;99092.59;;;5.25;86.72
83100;BME280;72972;51.784;4.660;2024-02-23T06:56:25;99105.78;;;5.28;86.40
83100;BME280;72972;51.784;4.660;2024-02-23T06:58:50;99085.91;;;5.28;86.03
83100;BME280;72972;51.784;4.660;2024-02-23T07:01:16;99093.66;;;5.31;85.83
83100;BME280;72972;51.784;4.660;2024-02-23T07:03:42;99094.69;;;5.36;86.72
83100;BME280;72972;51.784;4.660;2024-02-23T07:06:09;99098.25;;;5.37;86.80
83100;BME280;72972;51.784;4.660;2024-02-23T07:08:38;99099.09;;;5.37;86.47
83100;BME280;72972;51.784;4.660;2024-02-23T07:11:04;99102.44;;;5.33;87.33
83100;BME280;72972;51.784;4.660;2024-02-23T07:13:29;99110.38;;;5.41;87.21
83100;BME280;72972;51.784;4.660;2024-02-23T07:15:55;99113.50;;;5.38;86.82
83100;BME280;72972;51.784;4.660;2024-02-23T07:18:22;99101.59;;;5.39;87.04
83100;BME280;72972;51.784;4.660;2024-02-23T07:20:47;99102.84;;;5.36;86.87
83100;BME280;72972;51.784;4.660;2024-02-23T07:23:13;99104.53;;;5.37;86.58
83100;BME280;72972;51.784;4.660;2024-02-23T07:25:41;99103.91;;;5.35;86.75
83100;BME280;72972;51.784;4.660;2024-02-23T07:28:08;99102.22;;;5.34;86.69
83100;BME280;72972;51.784;4.660;2024-02-23T07:30:33;99083.41;;;5.33;88.01
83100;BME280;72972;51.784;4.660;2024-02-23T07:33:00;99086.34;;;5.31;87.95
83100;BME280;72972;51.784;4.660;2024-02-23T07:35:26;99083.81;;;5.30;88.26
83100;BME280;72972;51.784;4.660;2024-02-23T07:37:55;99083.81;;;5.30;88.68
83100;BME280;72972;51.784;4.660;2024-02-23T07:40:21;99082.34;;;5.27;89.13
83100;BME280;72972;51.784;4.660;2024-02-23T07:42:46;99081.53;;;5.27;89.52
83100;BME280;72972;51.784;4.660;2024-02-23T07:45:12;99079.81;;;5.26;89.39
83100;BME280;72972;51.784;4.660;2024-02-23T07:47:38;99068.13;;;5.25;89.58
83100;BME280;72972;51.784;4.660;2024-02-23T07:50:04;99068.75;;;5.27;88.85
83100;BME280;72972;51.784;4.660;2024-02-23T07:52:30;99064.56;;;5.25;89.49
83100;BME280;72972;51.784;4.660;2024-02-23T07:54:56;99063.72;;;5.24;91.21
83100;BME280;72972;51.784;4.660;2024-02-23T07:57:22;99075.41;;;5.18;90.35
83100;BME280;72972;51.784;4.660;2024-02-23T07:59:47;99075.84;;;5.22;91.19
83100;BME280;72972;51.784;4.660;2024-02-23T08:02:14;99075.84;;;5.22;90.46
83100;BME280;72972;51.784;4.660;2024-02-23T08:04:40;99075.41;;;5.18;91.54
83100;BME280;72972;51.784;4.660;2024-02-23T08:07:08;99073.56;;;5.19;91.75
83100;BME280;72972;51.784;4.660;2024-02-23T08:09:34;99079.41;;;5.16;91.79
83100;BME280;72972;51.784;4.660;2024-02-23T08:11:59;99063.50;;;5.13;92.53
83100;BME280;72972;51.784;4.660;2024-02-23T08:14:25;99065.59;;;5.11;92.48
83100;BME280;72972;51.784;4.660;2024-02-23T08:16:51;99064.53;;;5.12;92.51
83100;BME280;72972;51.784;4.660;2024-02-23T08:19:17;99073.31;;;5.14;92.48
83100;BME280;72972;51.784;4.660;2024-02-23T08:21:42;99074.59;;;5.18;93.88
83100;BME280;72972;51.784;4.660;2024-02-23T08:24:09;99065.41;;;5.19;93.32
83100;BME280;72972;51.784;4.660;2024-02-23T08:26:35;99068.75;;;5.21;92.55
83100;BME280;72972;51.784;4.660;2024-02-23T08:29:03;99076.25;;;5.19;93.45
83100;BME280;72972;51.784;4.660;2024-02-23T08:31:30;99079.22;;;5.24;93.12
83100;BME280;72972;51.784;4.660;2024-02-23T08:33:56;99079.63;;;5.27;93.03
83100;BME280;72972;51.784;4.660;2024-02-23T08:36:21;99073.56;;;5.25;93.99
83100;BME280;72972;51.784;4.660;2024-02-23T08:38:47;99075.66;;;5.30;93.03
83100;BME280;72972;51.784;4.660;2024-02-23T08:41:13;99086.53;;;5.30;93.55
83100;BME280;72972;51.784;4.660;2024-02-23T08:43:39;99080.91;;;5.31;93.28
83100;BME280;72972;51.784;4.660;2024-02-23T08:46:05;99082.56;;;5.32;92.96
83100;BME280;72972;51.784;4.660;2024-02-23T08:48:31;99089.25;;;5.36;94.09
83100;BME280;72972;51.784;4.660;2024-02-23T08:50:57;99076.28;;;5.38;93.88
83100;BME280;72972;51.784;4.660;2024-02-23T08:53:23;99087.41;;;5.43;94.06
83100;BME280;72972;51.784;4.660;2024-02-23T08:55:48;99088.22;;;5.44;94.08
83100;BME280;72972;51.784;4.660;2024-02-23T08:58:14;99085.06;;;5.47;93.67
83100;BME280;72972;51.784;4.660;2024-02-23T09:00:40;99084.69;;;5.43;94.05
83100;BME280;72972;51.784;4.660;2024-02-23T09:03:05;99093.66;;;5.44;94.50
83100;BME280;72972;51.784;4.660;2024-02-23T09:05:31;99080.91;;;5.44;93.27
83100;BME280;72972;51.784;4.660;2024-02-23T09:07:57;99078.41;;;5.43;92.88
83100;BME280;72972;51.784;4.660;2024-02-23T09:10:22;99078.00;;;5.59;92.85
83100;BME280;72972;51.784;4.660;2024-02-23T09:12:48;99079.66;;;5.73;92.34
83100;BME280;72972;51.784;4.660;2024-02-23T09:15:14;99087.63;;;5.68;91.89
83100;BME280;72972;51.784;4.660;2024-02-23T09:17:40;99074.44;;;5.65;91.74
83100;BME280;72972;51.784;4.660;2024-02-23T09:20:07;99068.38;;;5.70;92.55
83100;BME280;72972;51.784;4.660;2024-02-23T09:22:33;99081.75;;;5.78;91.46
83100;BME280;72972;51.784;4.660;2024-02-23T09:24:59;99068.38;;;6.02;91.50
83100;BME280;72972;51.784;4.660;2024-02-23T09:27:25;99080.88;;;6.29;91.16
83100;BME280;72972;51.784;4.660;2024-02-23T09:29:50;99085.03;;;6.51;90.17
83100;BME280;72972;51.784;4.660;2024-02-23T09:32:17;99084.84;;;6.46;89.47
83100;BME280;72972;51.784;4.660;2024-02-23T09:34:42;99090.72;;;6.43;89.68
83100;BME280;72972;51.784;4.660;2024-02-23T09:37:09;99093.91;;;6.34;89.92
83100;BME280;72972;51.784;4.660;2024-02-23T09:39:35;99094.72;;;6.28;89.17
83100;BME280;72972;51.784;4.660;2024-02-23T09:42:01;99091.38;;;6.26;89.56
83100;BME280;72972;51.784;4.660;2024-02-23T09:44:33;99098.28;;;6.28;89.21
83100;BME280;72972;51.784;4.660;2024-02-23T09:47:01;99114.81;;;6.27;89.61
83100;BME280;72972;51.784;4.660;2024-02-23T10:00:25;99133.09;;;6.00;92.38
83100;BME280;72972;51.784;4.660;2024-02-23T10:02:53;99129.50;;;6.00;92.18
83100;BME280;72972;51.784;4.660;2024-02-23T10:05:23;99129.72;;;6.05;91.27
83100;BME280;72972;51.784;4.660;2024-02-23T10:07:49;99128.69;;;6.12;91.63
83100;BME280;72972;51.784;4.660;2024-02-23T10:10:24;99140.19;;;6.27;91.10
83100;BME280;72972;51.784;4.660;2024-02-23T10:12:54;99107.72;;;6.26;89.53
83100;BME280;72972;51.784;4.660;2024-02-23T10:15:20;99141.22;;;6.39;89.43
83100;BME280;72972;51.784;4.660;2024-02-23T10:17:46;99133.47;;;6.43;90.65
83100;BME280;72972;51.784;4.660;2024-02-23T10:20:11;99149.16;;;6.47;90.77
83100;BME280;72972;51.784;4.660;2024-02-23T10:22:37;99144.09;;;6.57;90.44
83100;BME280;72972;51.784;4.660;2024-02-23T10:25:03;99150.56;;;6.69;89.82
83100;BME280;72972;51.784;4.660;2024-02-23T10:27:28;99160.41;;;6.70;89.73
83100;BME280;72972;51.784;4.660;2024-02-23T10:29:54;99155.19;;;6.62;90.00
83100;BME280;72972;51.784;4.660;2024-02-23T10:32:20;99160.88;;;6.54;90.06
83100;BME280;72972;51.784;4.660;2024-02-23T10:34:48;99150.81;;;6.48;89.63
83100;BME280;72972;51.784;4.660;2024-02-23T10:37:15;99161.88;;;6.60;89.29
83100;BME280;72972;51.784;4.660;2024-02-23T10:39:41;99158.75;;;6.69;88.53
83100;BME280;72972;51.784;4.660;2024-02-23T10:42:09;99180.69;;;6.87;87.50
83100;BME280;72972;51.784;4.660;2024-02-23T10:44:37;99167.84;;;7.01;87.34
83100;BME280;72972;51.784;4.660;2024-02-23T10:47:04;99181.00;;;7.24;86.05
83100;BME280;72972;51.784;4.660;2024-02-23T10:49:30;99171.03;;;7.42;85.27
83100;BME280;72972;51.784;4.660;2024-02-23T10:51:56;99173.94;;;7.54;84.57
83100;BME280;72972;51.784;4.660;2024-02-23T10:54:22;99185.31;;;7.44;84.23
83100;BME280;72972;51.784;4.660;2024-02-23T10:56:52;99177.34;;;7.43;83.64
83100;BME280;72972;51.784;4.660;2024-02-23T10:59:19;99181.34;;;7.40;84.04
83100;BME280;72972;51.784;4.660;2024-02-23T11:01:49;99187.38;;;7.49;84.07
83100;BME280;72972;51.784;4.660;2024-02-23T11:04:17;99181.44;;;7.65;82.92
83100;BME280;72972;51.784;4.660;2024-02-23T11:06:51;99188.84;;;7.82;82.99
83100;BME280;72972;51.784;4.660;2024-02-23T11:09:20;99179.88;;;7.75;82.95
83100;BME280;72972;51.784;4.660;2024-02-23T11:11:57;99194.13;;;7.77;82.94
83100;BME280;72972;51.784;4.660;2024-02-23T11:14:30;99185.13;;;7.77;83.12
83100;BME280;72972;51.784;4.660;2024-02-23T11:16:57;99186.31;;;7.87;81.86
83100;BME280;72972;51.784;4.660;2024-02-23T11:19:35;99185.00;;;7.96;81.64
83100;BME280;72972;51.784;4.660;2024-02-23T11:22:02;99182.72;;;7.93;80.85
83100;BME280;72972;51.784;4.660;2024-02-23T11:24:31;99186.09;;;7.89;81.50
83100;BME280;72972;51.784;4.660;2024-02-23T11:27:00;99193.28;;;8.08;81.88
83100;BME280;72972;51.784;4.660;2024-02-23T11:29:34;99198.97;;;8.06;81.11
83100;BME280;72972;51.784;4.660;2024-02-23T11:32:01;99204.63;;;8.11;80.48
83100;BME280;72972;51.784;4.660;2024-02-23T11:34:29;99208.91;;;8.01;80.70
83100;BME280;72972;51.784;4.660;2024-02-23T11:36:56;99219.81;;;8.01;82.26
83100;BME280;72972;51.784;4.660;2024-02-23T11:39:23;99210.19;;;7.98;82.23
83100;BME280;72972;51.784;4.660;2024-02-23T11:41:49;99215.97;;;8.08;80.91
83100;BME280;72972;51.784;4.660;2024-02-23T11:44:15;99211.44;;;8.33;81.49
83100;BME280;72972;51.784;4.660;2024-02-23T11:46:43;99198.19;;;8.55;79.54
83100;BME280;72972;51.784;4.660;2024-02-23T11:49:10;99192.84;;;8.66;78.45
83100;BME280;72972;51.784;4.660;2024-02-23T11:51:36;99189.88;;;8.68;78.48
83100;BME280;72972;51.784;4.660;2024-02-23T11:54:02;99190.28;;;8.71;78.59
83100;BME280;72972;51.784;4.660;2024-02-23T11:56:31;99183.69;;;8.97;76.97
83100;BME280;72972;51.784;4.660;2024-02-23T11:58:56;99183.53;;;9.10;75.15
83100;BME280;72972;51.784;4.660;2024-02-23T12:01:23;99194.84;;;8.77;74.50
83100;BME280;72972;51.784;4.660;2024-02-23T12:03:48;99193.78;;;8.97;74.63
83100;BME280;72972;51.784;4.660;2024-02-23T12:06:17;99190.81;;;8.80;75.92
83100;BME280;72972;51.784;4.660;2024-02-23T12:08:43;99191.06;;;8.97;76.17
83100;BME280;72972;51.784;4.660;2024-02-23T12:11:11;99187.81;;;9.06;75.43
83100;BME280;72972;51.784;4.660;2024-02-23T12:13:39;99195.38;;;9.04;75.61
83100;BME280;72972;51.784;4.660;2024-02-23T12:16:07;99193.72;;;8.85;73.71
83100;BME280;72972;51.784;4.660;2024-02-23T12:18:33;99210.94;;;8.61;75.04
83100;BME280;72972;51.784;4.660;2024-02-23T12:21:00;99210.41;;;8.52;76.75
83100;BME280;72972;51.784;4.660;2024-02-23T12:23:37;99209.47;;;8.65;76.85
83100;BME280;72972;51.784;4.660;2024-02-23T12:26:05;99206.59;;;8.78;76.84
83100;BME280;72972;51.784;4.660;2024-02-23T12:28:30;99196.44;;;8.85;75.67
83100;BME280;72972;51.784;4.660;2024-02-23T12:31:03;99195.31;;;8.93;76.37
83100;BME280;72972;51.784;4.660;2024-02-23T12:33:31;99197.13;;;8.99;75.30
83100;BME280;72972;51.784;4.660;2024-02-23T12:36:00;99193.28;;;9.06;75.08
83100;BME280;72972;51.784;4.660;2024-02-23T12:38:26;99194.53;;;9.04;75.02
83100;BME280;72972;51.784;4.660;2024-02-23T12:40:52;99194.47;;;8.92;74.38
83100;BME280;72972;51.784;4.660;2024-02-23T12:43:18;99210.59;;;9.00;75.16
83100;BME280;72972;51.784;4.660;2024-02-23T12:45:47;99209.22;;;8.91;75.16
83100;BME280;72972;51.784;4.660;2024-02-23T12:48:16;99213.16;;;8.95;73.82
83100;BME280;72972;51.784;4.660;2024-02-23T12:50:42;99210.47;;;8.88;75.11
83100;BME280;72972;51.784;4.660;2024-02-23T12:53:09;99206.06;;;8.69;74.91
83100;BME280;72972;51.784;4.660;2024-02-23T12:55:35;99214.13;;;8.58;75.07
83100;BME280;72972;51.784;4.660;2024-02-23T12:58:02;99206.34;;;8.61;76.12
83100;BME280;72972;51.784;4.660;2024-02-23T13:00:28;99214.09;;;8.64;76.06
83100;BME280;72972;51.784;4.660;2024-02-23T13:02:54;99211.31;;;8.71;76.09
83100;BME280;72972;51.784;4.660;2024-02-23T13:05:19;99211.06;;;8.72;76.46
83100;BME280;72972;51.784;4.660;2024-02-23T13:07:46;99194.72;;;8.66;76.78
83100;BME280;72972;51.784;4.660;2024-02-23T13:10:12;99207.31;;;8.67;75.36
83100;BME280;72972;51.784;4.660;2024-02-23T13:12:38;99218.25;;;8.67;73.90
83100;BME280;72972;51.784;4.660;2024-02-23T13:15:04;99212.09;;;8.96;74.27
83100;BME280;72972;51.784;4.660;2024-02-23T13:17:30;99211.56;;;9.24;74.73